sensor_id;sensor_type;location;lat;lon;timestamp;pressure;altitude;pressure_sealevel;temperature;humidity
13695;BME280;6919;52.344;14.518;2023-07-13T00:00:06;100378.53;;;19.70;100.00
13695;BME280;6919;52.344;14.518;2023-07-13T00:02:36;100393.28;;;19.80;100.00
13695;BME280;6919;52.344;14.518;2023-07-13T00:05:07;100393.50;;;19.85;100.00
13695;BME280;6919;52.344;14.518;2023-07-13T00:07:36;100396.28;;;19.72;100.00
13695;BME280;6919;52.344;14.518;2023-07-13T00:10:06;100394.22;;;19.68;100.00
13695;BME280;6919;52.344;14.518;2023-07-13T00:12:37;100394.91;;;19.57;100.00
13695;BME280;6919;52.344;14.518;2023-07-13T00:15:14;100401.19;;;19.57;100.00
13695;BME280;6919;52.344;14.518;2023-07-13T00:17:43;100400.38;;;19.50;100.00
13695;BME280;6919;52.344;14.518;2023-07-13T00:20:12;100401.34;;;19.62;100.00
13695;BME280;6919;52.344;14.518;2023-07-13T00:22:41;100401.16;;;19.64;100.00
13695;BME280;6919;52.344;14.518;2023-07-13T00:25:11;100390.09;;;19.52;100.00
13695;BME280;6919;52.344;14.518;2023-07-13T00:27:43;100398.53;;;19.44;100.00
13695;BME280;6919;52.344;14.518;2023-07-13T00:30:12;100396.22;;;19.48;100.00
13695;BME280;6919;52.344;14.518;2023-07-13T00:32:41;100405.19;;;19.48;100.00
13695;BME280;6919;52.344;14.518;2023-07-13T00:35:09;100408.34;;;19.52;100.00
13695;BME280;6919;52.344;14.518;2023-07-13T00:37:38;100402.47;;;19.48;100.00
13695;BME280;6919;52.344;14.518;2023-07-13T00:40:10;100407.09;;;19.48;100.00
13695;BME280;6919;52.344;14.518;2023-07-13T00:42:39;100408.34;;;19.45;100.00
13695;BME280;6919;52.344;14.518;2023-07-13T00:48:37;100408.59;;;19.44;100.00
13695;BME280;6919;52.344;14.518;2023-07-13T00:51:06;100398.56;;;19.38;100.00
13695;BME280;6919;52.344;14.518;2023-07-13T00:53:35;100397.72;;;19.37;100.00
13695;BME280;6919;52.344;14.518;2023-07-13T00:56:04;100401.97;;;19.27;100.00
13695;BME280;6919;52.344;14.518;2023-07-13T00:58:34;100405.28;;;19.29;100.00
13695;BME280;6919;52.344;14.518;2023-07-13T01:01:03;100406.13;;;19.23;100.00
13695;BME280;6919;52.344;14.518;2023-07-13T01:03:35;100412.59;;;19.35;100.00
13695;BME280;6919;52.344;14.518;2023-07-13T01:06:05;100413.66;;;19.27;100.00
13695;BME280;6919;52.344;14.518;2023-07-13T01:08:34;100420.56;;;19.30;100.00
13695;BME280;6919;52.344;14.518;2023-07-13T01:11:02;100422.88;;;19.20;100.00
13695;BME280;6919;52.344;14.518;2023-07-13T01:13:31;100416.78;;;19.31;100.00
13695;BME280;6919;52.344;14.518;2023-07-13T01:16:05;100419.31;;;19.13;100.00
13695;BME280;6919;52.344;14.518;2023-07-13T01:18:42;100422.47;;;19.10;100.00
13695;BME280;6919;52.344;14.518;2023-07-13T01:21:12;100413.28;;;19.04;100.00
13695;BME280;6919;52.344;14.518;2023-07-13T01:23:40;100419.16;;;19.01;100.00
13695;BME280;6919;52.344;14.518;2023-07-13T01:26:11;100427.09;;;18.90;100.00
13695;BME280;6919;52.344;14.518;2023-07-13T01:28:40;100423.38;;;18.91;100.00
13695;BME280;6919;52.344;14.518;2023-07-13T01:31:09;100419.81;;;18.90;100.00
13695;BME280;6919;52.344;14.518;2023-07-13T01:33:39;100420.63;;;18.97;100.00
13695;BME280;6919;52.344;14.518;2023-07-13T01:36:11;100409.31;;;18.94;100.00
13695;BME280;6919;52.344;14.518;2023-07-13T01:38:40;100407.06;;;18.91;100.00
13695;BME280;6919;52.344;14.518;2023-07-13T01:41:11;100406.19;;;18.97;100.00
13695;BME280;6919;52.344;14.518;2023-07-13T01:43:40;100406.81;;;18.99;100.00
13695;BME280;6919;52.344;14.518;2023-07-13T01:46:08;100409.13;;;18.95;100.00
13695;BME280;6919;52.344;14.518;2023-07-13T01:48:50;100412.25;;;18.92;100.00
13695;BME280;6919;52.344;14.518;2023-07-13T01:51:20;100407.88;;;18.91;100.00
13695;BME280;6919;52.344;14.518;2023-07-13T01:53:49;100421.91;;;18.82;100.00
13695;BME280;6919;52.344;14.518;2023-07-13T01:56:18;100426.31;;;18.76;100.00
13695;BME280;6919;52.344;14.518;2023-07-13T01:58:47;100421.72;;;18.77;100.00
13695;BME280;6919;52.344;14.518;2023-07-13T02:01:16;100427.56;;;18.74;100.00
13695;BME280;6919;52.344;14.518;2023-07-13T02:03:44;100421.50;;;18.72;100.00
13695;BME280;6919;52.344;14.518;2023-07-13T02:06:13;100409.38;;;18.68;100.00
13695;BME280;6919;52.344;14.518;2023-07-13T02:08:43;100410.84;;;18.64;100.00
13695;BME280;6919;52.344;14.518;2023-07-13T02:11:12;100410.22;;;18.62;100.00
13695;BME280;6919;52.344;14.518;2023-07-13T02:13:41;100406.28;;;18.51;100.00
13695;BME280;6919;52.344;14.518;2023-07-13T02:16:09;100415.88;;;18.54;100.00
13695;BME280;6919;52.344;14.518;2023-07-13T02:18:39;100407.13;;;18.52;100.00
13695;BME280;6919;52.344;14.518;2023-07-13T02:21:07;100403.56;;;18.64;100.00
13695;BME280;6919;52.344;14.518;2023-07-13T02:23:36;100417.75;;;18.66;100.00
13695;BME280;6919;52.344;14.518;2023-07-13T02:26:06;100420.88;;;18.63;100.00
13695;BME280;6919;52.344;14.518;2023-07-13T02:28:35;100420.06;;;18.63;100.00
13695;BME280;6919;52.344;14.518;2023-07-13T02:31:08;100418.56;;;18.73;100.00
13695;BME280;6919;52.344;14.518;2023-07-13T02:33:37;100419.00;;;18.64;100.00
13695;BME280;6919;52.344;14.518;2023-07-13T02:36:06;100415.84;;;18.60;100.00
13695;BME280;6919;52.344;14.518;2023-07-13T02:38:36;100418.78;;;18.59;100.00
13695;BME280;6919;52.344;14.518;2023-07-13T02:41:07;100415.03;;;18.66;100.00
13695;BME280;6919;52.344;14.518;2023-07-13T02:43:37;100427.38;;;18.62;100.00
13695;BME280;6919;52.344;14.518;2023-07-13T02:46:06;100424.66;;;18.56;100.00
13695;BME280;6919;52.344;14.518;2023-07-13T02:48:38;100425.47;;;18.56;100.00
13695;BME280;6919;52.344;14.518;2023-07-13T02:51:07;100433.44;;;18.51;100.00
13695;BME280;6919;52.344;14.518;2023-07-13T02:53:36;100428.41;;;18.42;100.00
13695;BME280;6919;52.344;14.518;2023-07-13T02:56:06;100423.41;;;18.52;100.00
13695;BME280;6919;52.344;14.518;2023-07-13T02:58:36;100426.53;;;18.42;100.00
13695;BME280;6919;52.344;14.518;2023-07-13T03:01:08;100438.84;;;18.51;100.00
13695;BME280;6919;52.344;14.518;2023-07-13T03:03:38;100439.91;;;18.44;100.00
13695;BME280;6919;52.344;14.518;2023-07-13T03:06:06;100449.88;;;18.30;100.00
13695;BME280;6919;52.344;14.518;2023-07-13T03:08:36;100435.03;;;18.20;100.00
13695;BME280;6919;52.344;14.518;2023-07-13T03:11:10;100435.44;;;18.10;100.00
13695;BME280;6919;52.344;14.518;2023-07-13T03:13:40;100435.88;;;18.14;100.00
13695;BME280;6919;52.344;14.518;2023-07-13T03:16:11;100435.44;;;18.10;100.00
13695;BME280;6919;52.344;14.518;2023-07-13T03:18:47;100431.91;;;18.10;100.00
13695;BME280;6919;52.344;14.518;2023-07-13T03:21:16;100422.72;;;18.11;100.00
13695;BME280;6919;52.344;14.518;2023-07-13T03:23:45;100418.56;;;18.15;100.00
13695;BME280;6919;52.344;14.518;2023-07-13T03:26:19;100422.94;;;18.09;100.00
13695;BME280;6919;52.344;14.518;2023-07-13T03:28:47;100421.69;;;18.12;100.00
13695;BME280;6919;52.344;14.518;2023-07-13T03:31:21;100423.34;;;18.13;100.00
13695;BME280;6919;52.344;14.518;2023-07-13T03:33:50;100424.22;;;18.26;100.00
13695;BME280;6919;52.344;14.518;2023-07-13T03:36:23;100422.72;;;18.17;100.00
13695;BME280;6919;52.344;14.518;2023-07-13T03:38:54;100419.19;;;18.23;100.00
13695;BME280;6919;52.344;14.518;2023-07-13T03:41:25;100427.72;;;18.27;100.00
13695;BME280;6919;52.344;14.518;2023-07-13T03:43:54;100434.88;;;18.54;100.00
13695;BME280;6919;52.344;14.518;2023-07-13T03:46:23;100441.50;;;18.19;100.00
13695;BME280;6919;52.344;14.518;2023-07-13T03:48:52;100434.69;;;18.36;100.00
13695;BME280;6919;52.344;14.518;2023-07-13T03:51:21;100447.59;;;18.21;100.00
13695;BME280;6919;52.344;14.518;2023-07-13T03:53:50;100450.56;;;18.39;100.00
13695;BME280;6919;52.344;14.518;2023-07-13T03:56:19;100451.56;;;18.31;100.00
13695;BME280;6919;52.344;14.518;2023-07-13T03:58:50;100447.44;;;18.42;100.00
13695;BME280;6919;52.344;14.518;2023-07-13T04:01:21;100450.97;;;18.49;100.00
13695;BME280;6919;52.344;14.518;2023-07-13T04:03:50;100450.56;;;18.52;100.00
13695;BME280;6919;52.344;14.518;2023-07-13T04:06:21;100458.91;;;18.63;100.00
13695;BME280;6919;52.344;14.518;2023-07-13T04:08:54;100464.97;;;18.65;100.00
13695;BME280;6919;52.344;14.518;2023-07-13T04:11:26;100460.16;;;18.80;100.00
13695;BME280;6919;52.344;14.518;2023-07-13T04:13:56;100472.25;;;18.97;100.00
13695;BME280;6919;52.344;14.518;2023-07-13T04:16:25;100459.06;;;19.01;100.00
13695;BME280;6919;52.344;14.518;2023-07-13T04:18:55;100457.81;;;19.03;100.00
13695;BME280;6919;52.344;14.518;2023-07-13T04:21:49;100457.38;;;19.13;100.00
13695;BME280;6919;52.344;14.518;2023-07-13T04:24:17;100468.44;;;19.18;100.00
13695;BME280;6919;52.344;14.518;2023-07-13T04:26:46;100470.75;;;19.21;100.00
13695;BME280;6919;52.344;14.518;2023-07-13T04:29:16;100480.38;;;19.30;100.00
13695;BME280;6919;52.344;14.518;2023-07-13T04:31:44;100478.69;;;19.09;100.00
13695;BME280;6919;52.344;14.518;2023-07-13T04:34:13;100478.91;;;19.14;100.00
13695;BME280;6919;52.344;14.518;2023-07-13T04:36:41;100475.16;;;19.28;100.00
13695;BME280;6919;52.344;14.518;2023-07-13T04:39:10;100485.41;;;19.26;100.00
13695;BME280;6919;52.344;14.518;2023-07-13T04:41:38;100477.34;;;19.57;100.00
13695;BME280;6919;52.344;14.518;2023-07-13T04:44:07;100482.44;;;19.91;100.00
13695;BME280;6919;52.344;14.518;2023-07-13T04:46:38;100479.63;;;20.11;100.00
13695;BME280;6919;52.344;14.518;2023-07-13T04:49:09;100493.16;;;20.55;100.00
13695;BME280;6919;52.344;14.518;2023-07-13T04:51:37;100483.97;;;20.50;100.00
13695;BME280;6919;52.344;14.518;2023-07-13T04:54:06;100482.88;;;20.57;100.00
13695;BME280;6919;52.344;14.518;2023-07-13T04:56:35;100486.25;;;20.53;100.00
13695;BME280;6919;52.344;14.518;2023-07-13T04:59:03;100494.22;;;20.54;100.00
13695;BME280;6919;52.344;14.518;2023-07-13T05:01:32;100485.88;;;20.74;100.00
13695;BME280;6919;52.344;14.518;2023-07-13T05:04:02;100489.66;;;20.97;100.00
13695;BME280;6919;52.344;14.518;2023-07-13T05:06:31;100491.00;;;21.31;100.00
13695;BME280;6919;52.344;14.518;2023-07-13T05:08:59;100502.88;;;21.18;100.00
13695;BME280;6919;52.344;14.518;2023-07-13T05:11:28;100504.44;;;21.32;100.00
13695;BME280;6919;52.344;14.518;2023-07-13T05:13:57;100502.16;;;21.83;100.00
13695;BME280;6919;52.344;14.518;2023-07-13T05:16:25;100502.31;;;21.70;100.00
13695;BME280;6919;52.344;14.518;2023-07-13T05:18:54;100503.06;;;22.25;100.00
13695;BME280;6919;52.344;14.518;2023-07-13T05:21:24;100500.97;;;21.79;100.00
13695;BME280;6919;52.344;14.518;2023-07-13T05:23:52;100508.72;;;22.12;100.00
13695;BME280;6919;52.344;14.518;2023-07-13T05:26:21;100508.13;;;21.92;100.00
13695;BME280;6919;52.344;14.518;2023-07-13T05:28:49;100513.53;;;21.80;100.00
13695;BME280;6919;52.344;14.518;2023-07-13T05:31:18;100519.28;;;21.90;100.00
13695;BME280;6919;52.344;14.518;2023-07-13T05:33:47;100503.53;;;21.92;100.00
13695;BME280;6919;52.344;14.518;2023-07-13T05:36:15;100511.81;;;22.15;95.43
13695;BME280;6919;52.344;14.518;2023-07-13T05:38:45;100504.59;;;22.50;87.93
13695;BME280;6919;52.344;14.518;2023-07-13T05:41:14;100517.44;;;22.50;78.94
13695;BME280;6919;52.344;14.518;2023-07-13T05:43:43;100516.38;;;22.51;80.61
13695;BME280;6919;52.344;14.518;2023-07-13T05:46:11;100514.97;;;22.30;82.66
13695;BME280;6919;52.344;14.518;2023-07-13T05:48:40;100522.84;;;22.79;75.50
13695;BME280;6919;52.344;14.518;2023-07-13T05:51:09;100520.91;;;22.68;76.36
13695;BME280;6919;52.344;14.518;2023-07-13T05:53:40;100522.88;;;23.03;77.05
13695;BME280;6919;52.344;14.518;2023-07-13T05:56:10;100526.47;;;23.03;79.74
13695;BME280;6919;52.344;14.518;2023-07-13T05:58:39;100520.94;;;23.72;75.20
13695;BME280;6919;52.344;14.518;2023-07-13T06:01:12;100531.66;;;23.85;63.78
13695;BME280;6919;52.344;14.518;2023-07-13T06:03:42;100537.63;;;23.94;63.79
13695;BME280;6919;52.344;14.518;2023-07-13T06:06:11;100532.19;;;24.10;64.64
13695;BME280;6919;52.344;14.518;2023-07-13T06:08:40;100533.84;;;23.60;66.58
13695;BME280;6919;52.344;14.518;2023-07-13T06:11:16;100539.41;;;23.77;68.62
13695;BME280;6919;52.344;14.518;2023-07-13T06:13:45;100535.94;;;23.81;67.00
13695;BME280;6919;52.344;14.518;2023-07-13T06:16:15;100539.16;;;23.90;67.90
13695;BME280;6919;52.344;14.518;2023-07-13T06:18:44;100536.72;;;24.16;72.20
13695;BME280;6919;52.344;14.518;2023-07-13T06:21:16;100539.00;;;24.36;66.00
13695;BME280;6919;52.344;14.518;2023-07-13T06:23:48;100543.09;;;24.78;64.65
13695;BME280;6919;52.344;14.518;2023-07-13T06:26:20;100544.28;;;24.82;63.31
13695;BME280;6919;52.344;14.518;2023-07-13T06:28:49;100538.75;;;24.65;64.37
13695;BME280;6919;52.344;14.518;2023-07-13T06:31:17;100549.59;;;25.05;63.15
13695;BME280;6919;52.344;14.518;2023-07-13T06:33:46;100542.75;;;24.91;61.72
13695;BME280;6919;52.344;14.518;2023-07-13T06:36:15;100545.00;;;24.94;61.64
13695;BME280;6919;52.344;14.518;2023-07-13T06:38:43;100545.19;;;25.04;62.95
13695;BME280;6919;52.344;14.518;2023-07-13T06:41:12;100549.41;;;25.11;62.77
13695;BME280;6919;52.344;14.518;2023-07-13T06:43:43;100559.53;;;25.61;59.42
13695;BME280;6919;52.344;14.518;2023-07-13T06:46:11;100548.97;;;26.12;58.57
13695;BME280;6919;52.344;14.518;2023-07-13T06:48:40;100551.47;;;25.54;55.93
13695;BME280;6919;52.344;14.518;2023-07-13T06:51:08;100554.88;;;25.61;56.78
13695;BME280;6919;52.344;14.518;2023-07-13T06:53:37;100561.38;;;25.93;57.62
13695;BME280;6919;52.344;14.518;2023-07-13T06:56:06;100560.63;;;25.98;52.78
13695;BME280;6919;52.344;14.518;2023-07-13T06:58:35;100556.34;;;26.07;52.39
13695;BME280;6919;52.344;14.518;2023-07-13T07:01:05;100559.34;;;26.05;52.95
13695;BME280;6919;52.344;14.518;2023-07-13T07:03:35;100550.13;;;25.95;52.12
13695;BME280;6919;52.344;14.518;2023-07-13T07:06:13;100551.81;;;25.24;55.65
13695;BME280;6919;52.344;14.518;2023-07-13T07:08:43;100543.94;;;24.95;54.87
13695;BME280;6919;52.344;14.518;2023-07-13T07:11:16;100547.94;;;25.04;57.08
13695;BME280;6919;52.344;14.518;2023-07-13T07:13:45;100556.13;;;25.70;55.08
13695;BME280;6919;52.344;14.518;2023-07-13T07:16:16;100561.88;;;25.19;54.16
13695;BME280;6919;52.344;14.518;2023-07-13T07:18:45;100557.41;;;25.46;57.70
13695;BME280;6919;52.344;14.518;2023-07-13T07:21:16;100557.16;;;25.48;57.61
13695;BME280;6919;52.344;14.518;2023-07-13T07:24:09;100554.22;;;25.54;57.80
13695;BME280;6919;52.344;14.518;2023-07-13T07:26:41;100558.75;;;25.43;55.32
13695;BME280;6919;52.344;14.518;2023-07-13T07:29:12;100556.16;;;25.37;54.09
13695;BME280;6919;52.344;14.518;2023-07-13T07:31:45;100560.63;;;25.98;56.65
13695;BME280;6919;52.344;14.518;2023-07-13T07:34:30;100557.34;;;26.22;53.50
13695;BME280;6919;52.344;14.518;2023-07-13T07:37:01;100561.56;;;26.30;53.23
13695;BME280;6919;52.344;14.518;2023-07-13T07:39:32;100558.81;;;26.30;54.33
13695;BME280;6919;52.344;14.518;2023-07-13T07:42:01;100562.16;;;26.58;51.95
13695;BME280;6919;52.344;14.518;2023-07-13T07:44:31;100566.13;;;26.46;49.28
13695;BME280;6919;52.344;14.518;2023-07-13T07:47:01;100563.00;;;25.94;54.27
13695;BME280;6919;52.344;14.518;2023-07-13T07:49:29;100564.47;;;25.80;54.42
13695;BME280;6919;52.344;14.518;2023-07-13T07:51:58;100569.94;;;26.40;53.78
13695;BME280;6919;52.344;14.518;2023-07-13T07:54:27;100558.53;;;26.79;52.68
13695;BME280;6919;52.344;14.518;2023-07-13T07:57:15;100564.34;;;26.56;52.52
13695;BME280;6919;52.344;14.518;2023-07-13T08:00:06;100569.50;;;26.74;52.12
13695;BME280;6919;52.344;14.518;2023-07-13T08:02:42;100568.16;;;26.29;51.43
13695;BME280;6919;52.344;14.518;2023-07-13T08:05:15;100574.34;;;25.60;52.31
13695;BME280;6919;52.344;14.518;2023-07-13T08:07:46;100566.47;;;24.52;57.69
13695;BME280;6919;52.344;14.518;2023-07-13T08:10:16;100564.56;;;24.97;59.06
13695;BME280;6919;52.344;14.518;2023-07-13T08:12:45;100570.50;;;25.77;54.55
13695;BME280;6919;52.344;14.518;2023-07-13T08:15:21;100573.06;;;26.05;53.42
13695;BME280;6919;52.344;14.518;2023-07-13T08:17:52;100570.53;;;26.20;54.07
13695;BME280;6919;52.344;14.518;2023-07-13T08:20:23;100568.84;;;26.19;53.67
13695;BME280;6919;52.344;14.518;2023-07-13T08:22:52;100582.00;;;25.74;53.26
13695;BME280;6919;52.344;14.518;2023-07-13T08:25:21;100575.38;;;25.37;56.30
13695;BME280;6919;52.344;14.518;2023-07-13T08:27:50;100573.25;;;25.77;54.53
13695;BME280;6919;52.344;14.518;2023-07-13T08:30:19;100572.66;;;25.75;54.99
13695;BME280;6919;52.344;14.518;2023-07-13T08:32:51;100572.00;;;26.28;54.09
13695;BME280;6919;52.344;14.518;2023-07-13T08:35:20;100578.16;;;26.61;50.93
13695;BME280;6919;52.344;14.518;2023-07-13T08:37:49;100576.94;;;25.88;51.27
13695;BME280;6919;52.344;14.518;2023-07-13T08:40:24;100578.84;;;25.16;53.60
13695;BME280;6919;52.344;14.518;2023-07-13T08:42:58;100578.53;;;25.29;53.46
13695;BME280;6919;52.344;14.518;2023-07-13T08:45:38;100572.31;;;25.50;53.65
13695;BME280;6919;52.344;14.518;2023-07-13T08:48:19;100572.06;;;25.35;53.72
13695;BME280;6919;52.344;14.518;2023-07-13T08:50:55;100576.28;;;25.26;54.97
13695;BME280;6919;52.344;14.518;2023-07-13T08:53:47;100578.19;;;25.25;54.11
13695;BME280;6919;52.344;14.518;2023-07-13T08:56:21;100579.78;;;25.38;52.87
13695;BME280;6919;52.344;14.518;2023-07-13T08:58:56;100576.22;;;26.14;56.03
13695;BME280;6919;52.344;14.518;2023-07-13T09:01:46;100572.00;;;26.54;51.18
13695;BME280;6919;52.344;14.518;2023-07-13T09:04:22;100584.63;;;26.02;47.70
13695;BME280;6919;52.344;14.518;2023-07-13T09:07:02;100576.94;;;25.16;49.38
13695;BME280;6919;52.344;14.518;2023-07-13T09:09:50;100571.41;;;25.83;51.62
13695;BME280;6919;52.344;14.518;2023-07-13T09:12:30;100576.72;;;26.32;48.80
13695;BME280;6919;52.344;14.518;2023-07-13T09:15:03;100584.06;;;26.05;48.81
13695;BME280;6919;52.344;14.518;2023-07-13T09:17:40;100586.09;;;25.55;47.47
13695;BME280;6919;52.344;14.518;2023-07-13T09:20:23;100582.19;;;25.51;48.10
13695;BME280;6919;52.344;14.518;2023-07-13T09:22:55;100580.66;;;24.77;49.49
13695;BME280;6919;52.344;14.518;2023-07-13T09:25:31;100590.13;;;24.86;49.46
13695;BME280;6919;52.344;14.518;2023-07-13T09:28:10;100588.09;;;24.65;48.49
13695;BME280;6919;52.344;14.518;2023-07-13T09:30:49;100583.72;;;24.64;49.32
13695;BME280;6919;52.344;14.518;2023-07-13T09:33:21;100576.25;;;25.59;49.26
13695;BME280;6919;52.344;14.518;2023-07-13T09:35:51;100581.47;;;26.15;47.31
13695;BME280;6919;52.344;14.518;2023-07-13T09:38:23;100572.69;;;26.18;46.06
13695;BME280;6919;52.344;14.518;2023-07-13T09:41:18;100588.78;;;25.88;46.25
13695;BME280;6919;52.344;14.518;2023-07-13T09:44:08;100581.22;;;25.24;47.00
13695;BME280;6919;52.344;14.518;2023-07-13T09:46:43;100577.31;;;25.75;45.64
13695;BME280;6919;52.344;14.518;2023-07-13T09:49:13;100573.16;;;26.10;44.81
13695;BME280;6919;52.344;14.518;2023-07-13T09:51:43;100577.78;;;25.88;44.69
13695;BME280;6919;52.344;14.518;2023-07-13T09:54:21;100583.00;;;25.18;45.55
13695;BME280;6919;52.344;14.518;2023-07-13T09:56:55;100582.38;;;25.28;46.89
13695;BME280;6919;52.344;14.518;2023-07-13T09:59:29;100577.31;;;24.47;48.15
13695;BME280;6919;52.344;14.518;2023-07-13T10:01:58;100581.75;;;24.76;48.53
13695;BME280;6919;52.344;14.518;2023-07-13T10:04:31;100588.09;;;25.10;48.49
13695;BME280;6919;52.344;14.518;2023-07-13T10:07:11;100582.41;;;25.66;47.35
13695;BME280;6919;52.344;14.518;2023-07-13T10:09:57;100573.44;;;26.57;44.45
13695;BME280;6919;52.344;14.518;2023-07-13T10:12:34;100583.06;;;26.33;44.66
13695;BME280;6919;52.344;14.518;2023-07-13T10:15:15;100569.72;;;25.82;45.14
13695;BME280;6919;52.344;14.518;2023-07-13T10:17:52;100584.50;;;26.62;45.17
13695;BME280;6919;52.344;14.518;2023-07-13T10:20:22;100582.06;;;26.65;44.96
13695;BME280;6919;52.344;14.518;2023-07-13T10:22:58;100592.63;;;26.73;44.37
13695;BME280;6919;52.344;14.518;2023-07-13T10:25:32;100592.78;;;26.93;43.30
13695;BME280;6919;52.344;14.518;2023-07-13T10:30:56;100590.91;;;26.99;43.90
13695;BME280;6919;52.344;14.518;2023-07-13T10:33:27;100595.63;;;26.98;43.74
13695;BME280;6919;52.344;14.518;2023-07-13T10:36:05;100604.13;;;26.70;43.59
13695;BME280;6919;52.344;14.518;2023-07-13T10:38:48;100607.34;;;26.19;45.44
13695;BME280;6919;52.344;14.518;2023-07-13T10:41:21;100608.50;;;26.02;45.85
13695;BME280;6919;52.344;14.518;2023-07-13T10:43:54;100609.63;;;25.84;46.45
13695;BME280;6919;52.344;14.518;2023-07-13T10:46:27;100610.09;;;25.98;45.73
13695;BME280;6919;52.344;14.518;2023-07-13T10:49:02;100608.31;;;26.30;46.29
13695;BME280;6919;52.344;14.518;2023-07-13T10:51:33;100613.84;;;26.56;45.60
13695;BME280;6919;52.344;14.518;2023-07-13T10:54:17;100612.97;;;26.29;46.74
13695;BME280;6919;52.344;14.518;2023-07-13T10:57:15;100610.91;;;25.98;44.63
13695;BME280;6919;52.344;14.518;2023-07-13T10:59:48;100607.31;;;26.36;46.63
13695;BME280;6919;52.344;14.518;2023-07-13T11:02:26;100605.34;;;26.58;44.33
13695;BME280;6919;52.344;14.518;2023-07-13T11:04:56;100608.50;;;26.45;44.58
13695;BME280;6919;52.344;14.518;2023-07-13T11:07:31;100607.31;;;26.36;45.73
13695;BME280;6919;52.344;14.518;2023-07-13T11:10:06;100602.16;;;26.92;45.07
13695;BME280;6919;52.344;14.518;2023-07-13T11:12:55;100604.34;;;26.90;44.05
13695;BME280;6919;52.344;14.518;2023-07-13T11:15:44;100600.50;;;26.91;43.74
13695;BME280;6919;52.344;14.518;2023-07-13T11:18:24;100595.28;;;27.58;44.66
13695;BME280;6919;52.344;14.518;2023-07-13T11:21:14;100602.59;;;28.26;43.08
13695;BME280;6919;52.344;14.518;2023-07-13T11:24:13;100599.56;;;27.80;41.20
13695;BME280;6919;52.344;14.518;2023-07-13T11:26:52;100605.13;;;26.86;42.82
13695;BME280;6919;52.344;14.518;2023-07-13T11:29:33;100608.50;;;26.45;44.89
13695;BME280;6919;52.344;14.518;2023-07-13T11:32:24;100612.75;;;26.09;45.53
13695;BME280;6919;52.344;14.518;2023-07-13T11:34:54;100608.91;;;26.10;45.49
13695;BME280;6919;52.344;14.518;2023-07-13T11:37:24;100610.09;;;26.19;45.80
13695;BME280;6919;52.344;14.518;2023-07-13T11:39:54;100607.09;;;25.99;46.47
13695;BME280;6919;52.344;14.518;2023-07-13T11:42:23;100604.22;;;25.94;46.35
13695;BME280;6919;52.344;14.518;2023-07-13T11:44:53;100602.78;;;25.87;46.05
13695;BME280;6919;52.344;14.518;2023-07-13T11:47:40;100607.16;;;26.26;45.37
13695;BME280;6919;52.344;14.518;2023-07-13T11:50:19;100614.13;;;27.08;43.62
13695;BME280;6919;52.344;14.518;2023-07-13T11:52:50;100609.81;;;27.48;43.17
13695;BME280;6919;52.344;14.518;2023-07-13T11:55:22;100614.56;;;28.46;42.84
13695;BME280;6919;52.344;14.518;2023-07-13T11:57:58;100600.78;;;28.56;42.15
13695;BME280;6919;52.344;14.518;2023-07-13T12:00:31;100607.75;;;28.94;41.07
13695;BME280;6919;52.344;14.518;2023-07-13T12:03:03;100600.03;;;29.01;40.54
13695;BME280;6919;52.344;14.518;2023-07-13T12:05:33;100603.06;;;28.99;40.47
13695;BME280;6919;52.344;14.518;2023-07-13T12:08:10;100606.09;;;28.98;39.98
13695;BME280;6919;52.344;14.518;2023-07-13T12:10:58;100598.03;;;28.56;39.74
13695;BME280;6919;52.344;14.518;2023-07-13T12:13:29;100596.09;;;27.95;40.28
13695;BME280;6919;52.344;14.518;2023-07-13T12:15:58;100595.53;;;27.51;40.44
13695;BME280;6919;52.344;14.518;2023-07-13T12:18:31;100595.59;;;27.25;41.13
13695;BME280;6919;52.344;14.518;2023-07-13T12:21:01;100597.25;;;26.99;41.82
13695;BME280;6919;52.344;14.518;2023-07-13T12:23:34;100598.72;;;26.32;43.08
13695;BME280;6919;52.344;14.518;2023-07-13T12:26:06;100604.59;;;26.19;44.05
13695;BME280;6919;52.344;14.518;2023-07-13T12:28:45;100599.59;;;26.38;43.96
13695;BME280;6919;52.344;14.518;2023-07-13T12:31:29;100589.94;;;27.10;43.47
13695;BME280;6919;52.344;14.518;2023-07-13T12:34:02;100588.94;;;26.41;43.91
13695;BME280;6919;52.344;14.518;2023-07-13T12:36:35;100590.81;;;27.15;42.57
13695;BME280;6919;52.344;14.518;2023-07-13T12:39:14;100581.53;;;28.04;42.58
13695;BME280;6919;52.344;14.518;2023-07-13T12:41:44;100586.16;;;28.56;40.05
13695;BME280;6919;52.344;14.518;2023-07-13T12:44:18;100573.84;;;27.65;38.19
13695;BME280;6919;52.344;14.518;2023-07-13T12:47:02;100578.97;;;27.88;39.45
13695;BME280;6919;52.344;14.518;2023-07-13T12:49:33;100575.00;;;28.26;39.94
13695;BME280;6919;52.344;14.518;2023-07-13T12:52:12;100562.22;;;27.21;39.69
13695;BME280;6919;52.344;14.518;2023-07-13T12:54:53;100564.59;;;26.76;39.44
13695;BME280;6919;52.344;14.518;2023-07-13T12:57:38;100569.28;;;27.39;39.25
13695;BME280;6919;52.344;14.518;2023-07-13T13:00:25;100572.03;;;27.39;38.93
13695;BME280;6919;52.344;14.518;2023-07-13T13:02:57;100573.59;;;27.71;38.87
13695;BME280;6919;52.344;14.518;2023-07-13T13:06:00;100561.44;;;28.14;37.55
13695;BME280;6919;52.344;14.518;2023-07-13T13:08:31;100563.56;;;29.59;36.41
13695;BME280;6919;52.344;14.518;2023-07-13T13:11:00;100565.63;;;30.27;36.34
13695;BME280;6919;52.344;14.518;2023-07-13T13:13:29;100568.06;;;31.78;33.67
13695;BME280;6919;52.344;14.518;2023-07-13T13:16:09;100569.13;;;29.29;35.16
13695;BME280;6919;52.344;14.518;2023-07-13T13:18:41;100555.56;;;27.95;37.15